createdAt,value
2022-12-23T00:00:40.166Z,4.40
2022-12-23T00:03:07.024Z,4.56
2022-12-23T00:05:40.164Z,4.58
2022-12-23T00:08:07.174Z,4.71
2022-12-23T00:10:34.727Z,4.79
2022-12-23T00:13:19.802Z,4.74
2022-12-23T00:15:46.210Z,4.76
2022-12-23T00:18:12.539Z,4.76
2022-12-23T00:20:38.885Z,4.77
2022-12-23T00:23:05.236Z,4.83
2022-12-23T00:25:41.266Z,4.94
2022-12-23T00:28:07.608Z,5.04
2022-12-23T00:30:33.934Z,5.11
2022-12-23T00:33:00.265Z,5.13
2022-12-23T00:35:29.168Z,5.06
2022-12-23T00:37:55.498Z,5.15
2022-12-23T00:40:40.524Z,5.17
2022-12-23T00:43:06.889Z,5.15
2022-12-23T00:45:33.311Z,5.17
2022-12-23T00:48:18.541Z,5.17
2022-12-23T00:50:44.917Z,5.13
2022-12-23T00:53:11.240Z,5.02
2022-12-23T00:55:37.638Z,5.13
2022-12-23T00:58:03.958Z,5.13
2022-12-23T01:00:49.201Z,5.11
2022-12-23T01:03:33.977Z,5.21
2022-12-23T01:06:01.195Z,5.24
2022-12-23T01:08:27.610Z,5.15
2022-12-23T01:10:54.141Z,5.18
2022-12-23T01:13:20.862Z,5.18
2022-12-23T01:15:47.552Z,5.20
2022-12-23T01:18:15.721Z,5.22
2022-12-23T01:20:42.037Z,5.20
2022-12-23T01:23:08.406Z,5.24
2022-12-23T01:25:34.712Z,5.18
2022-12-23T01:28:01.038Z,5.19
2022-12-23T01:30:27.428Z,5.23
2022-12-23T01:32:53.770Z,5.28
2022-12-23T01:35:20.082Z,4.98
2022-12-23T01:37:46.411Z,5.10
2022-12-23T01:40:12.793Z,5.05
2022-12-23T01:42:45.390Z,5.07
2022-12-23T01:45:25.045Z,5.11
2022-12-23T01:47:54.679Z,5.11
2022-12-23T01:50:27.317Z,5.13
2022-12-23T01:53:06.873Z,5.08
2022-12-23T01:55:36.669Z,5.18
2022-12-23T01:58:15.129Z,5.20
2022-12-23T02:01:00.918Z,5.19
2022-12-23T02:03:42.512Z,5.17
2022-12-23T02:06:58.923Z,5.23
2022-12-23T02:09:27.435Z,5.27
2022-12-23T02:12:05.109Z,5.31
2022-12-23T02:15:16.392Z,5.33
2022-12-23T02:17:49.067Z,5.34
2022-12-23T02:20:33.755Z,5.31
2022-12-23T02:23:15.178Z,5.20
2022-12-23T02:25:47.596Z,5.24
2022-12-23T02:28:23.455Z,5.29
2022-12-23T02:30:58.054Z,5.32
2022-12-23T02:33:30.743Z,5.16
2022-12-23T02:35:57.040Z,5.16
2022-12-23T02:38:23.333Z,5.24
2022-12-23T02:41:00.512Z,5.29
2022-12-23T02:43:35.511Z,5.19
2022-12-23T02:46:09.272Z,5.16
2022-12-23T02:48:49.468Z,5.26
2022-12-23T02:51:16.230Z,5.34
2022-12-23T02:53:50.914Z,5.34
2022-12-23T02:56:18.401Z,5.39
2022-12-23T02:58:50.110Z,5.42
2022-12-23T03:01:17.361Z,5.37
2022-12-23T03:03:45.440Z,5.34
2022-12-23T03:06:22.053Z,5.45
2022-12-23T03:08:49.703Z,5.47
2022-12-23T03:11:17.873Z,5.39
2022-12-23T03:13:59.362Z,5.39
2022-12-23T03:16:37.640Z,5.50
2022-12-23T03:19:03.978Z,5.53
2022-12-23T03:21:33.248Z,5.55
2022-12-23T03:24:09.100Z,5.55
2022-12-23T03:26:48.512Z,5.57
2022-12-23T03:29:19.672Z,5.61
2022-12-23T03:31:47.071Z,5.58
2022-12-23T03:34:17.228Z,5.63
2022-12-23T03:36:52.217Z,5.66
2022-12-23T03:39:23.436Z,5.48
2022-12-23T03:41:56.886Z,5.43
2022-12-23T03:44:26.666Z,5.52
2022-12-23T03:47:03.135Z,5.59
2022-12-23T03:49:31.949Z,5.49
2022-12-23T03:52:02.857Z,5.55
2022-12-23T03:54:41.086Z,5.60
2022-12-23T03:57:07.666Z,5.66
2022-12-23T03:59:36.163Z,5.62
2022-12-23T04:02:13.837Z,5.70
2022-12-23T04:04:45.242Z,5.67
2022-12-23T04:07:21.297Z,5.73
2022-12-23T04:09:48.201Z,5.74
2022-12-23T04:12:15.027Z,5.69
2022-12-23T04:14:48.389Z,5.64
2022-12-23T04:17:15.509Z,5.67
2022-12-23T04:19:45.600Z,5.69
2022-12-23T04:22:15.724Z,5.63
2022-12-23T04:24:42.380Z,5.75
2022-12-23T04:27:11.425Z,5.76
2022-12-23T04:29:38.570Z,5.79
2022-12-23T04:32:05.315Z,5.78
2022-12-23T04:34:31.682Z,5.79
2022-12-23T04:36:57.993Z,5.50
2022-12-23T04:39:24.510Z,5.68
2022-12-23T04:41:50.883Z,5.76
2022-12-23T04:44:17.212Z,5.69
2022-12-23T04:46:43.617Z,5.74
2022-12-23T04:49:10.139Z,5.79
2022-12-23T04:51:36.558Z,5.70
2022-12-23T04:54:02.986Z,5.79
2022-12-23T04:56:29.335Z,5.80
2022-12-23T04:58:55.660Z,5.72
2022-12-23T05:01:22.125Z,5.79
2022-12-23T05:03:48.539Z,5.86
2022-12-23T05:06:14.867Z,5.87
2022-12-23T05:08:41.195Z,5.72
2022-12-23T05:11:07.562Z,5.79
2022-12-23T05:13:33.913Z,5.84
2022-12-23T05:16:00.390Z,5.92
2022-12-23T05:18:26.802Z,5.94
2022-12-23T05:20:53.125Z,5.95
2022-12-23T05:23:19.485Z,5.97
2022-12-23T05:25:50.044Z,5.90
2022-12-23T05:28:16.407Z,5.92
2022-12-23T05:30:42.831Z,5.91
2022-12-23T05:33:09.314Z,5.85
2022-12-23T05:35:35.684Z,5.90
2022-12-23T05:38:03.308Z,5.90
2022-12-23T05:40:33.490Z,5.91
2022-12-23T05:43:00.418Z,5.91
2022-12-23T05:45:26.819Z,5.91
2022-12-23T05:47:53.330Z,5.95
2022-12-23T05:50:19.639Z,5.94
2022-12-23T05:52:45.994Z,5.91
2022-12-23T05:55:12.309Z,5.83
2022-12-23T05:57:38.663Z,5.78
2022-12-23T06:00:05.170Z,5.80
2022-12-23T06:02:31.680Z,5.83
2022-12-23T06:04:58.145Z,5.88
2022-12-23T06:07:24.472Z,5.86
2022-12-23T06:09:50.845Z,5.89
2022-12-23T06:12:17.169Z,5.90
2022-12-23T06:14:43.510Z,5.80
2022-12-23T06:17:09.810Z,5.86
2022-12-23T06:19:36.177Z,5.91
2022-12-23T06:22:02.499Z,5.91
2022-12-23T06:24:28.849Z,5.91
2022-12-23T06:26:57.436Z,5.90
2022-12-23T06:29:24.344Z,5.92
2022-12-23T06:31:50.793Z,5.88
2022-12-23T06:34:17.345Z,5.90
2022-12-23T06:36:43.726Z,5.84
2022-12-23T06:39:10.654Z,5.83
2022-12-23T06:41:36.970Z,5.88
2022-12-23T06:44:03.454Z,5.77
2022-12-23T06:46:30.001Z,5.75
2022-12-23T06:48:56.401Z,5.83
2022-12-23T06:51:22.738Z,5.90
2022-12-23T06:53:49.061Z,5.81
2022-12-23T06:56:15.423Z,5.82
2022-12-23T06:58:41.807Z,5.73
2022-12-23T07:01:09.997Z,5.86
2022-12-23T07:03:36.785Z,5.79
2022-12-23T07:06:03.491Z,5.82
2022-12-23T07:08:29.831Z,5.70
2022-12-23T07:10:59.691Z,5.81
2022-12-23T07:13:27.967Z,5.77
2022-12-23T07:15:54.328Z,5.82
2022-12-23T07:18:21.748Z,5.90
2022-12-23T07:20:48.094Z,5.88
2022-12-23T07:23:14.417Z,5.94
2022-12-23T07:25:40.761Z,5.94
2022-12-23T07:28:07.141Z,5.93
2022-12-23T07:30:33.521Z,5.94
2022-12-23T07:32:59.859Z,5.97
2022-12-23T07:35:26.311Z,5.96
2022-12-23T07:37:53.430Z,5.97
2022-12-23T07:40:19.763Z,5.94
2022-12-23T07:42:48.435Z,5.92
2022-12-23T07:45:14.855Z,5.99
2022-12-23T07:47:41.512Z,6.00
2022-12-23T07:50:08.274Z,5.98
2022-12-23T07:52:34.603Z,5.73
2022-12-23T07:55:00.974Z,5.84
2022-12-23T07:57:29.299Z,5.94
2022-12-23T07:59:55.754Z,5.99
2022-12-23T08:02:25.119Z,6.04
2022-12-23T08:04:52.025Z,6.04
2022-12-23T08:07:18.467Z,5.95
2022-12-23T08:09:45.423Z,5.96
2022-12-23T08:12:12.282Z,6.06
2022-12-23T08:14:38.701Z,6.16
2022-12-23T08:17:05.146Z,6.20
2022-12-23T08:19:31.696Z,6.18
2022-12-23T08:21:58.096Z,6.19
2022-12-23T08:24:24.492Z,6.28
2022-12-23T08:26:51.073Z,6.27
2022-12-23T08:29:17.721Z,6.27
2022-12-23T08:31:44.147Z,6.31
2022-12-23T08:34:10.774Z,6.26
2022-12-23T08:36:37.167Z,6.24
2022-12-23T08:39:05.787Z,6.25
2022-12-23T08:41:33.525Z,5.86
2022-12-23T08:44:00.130Z,6.03
2022-12-23T08:46:26.784Z,6.19
2022-12-23T08:48:53.590Z,6.06
2022-12-23T08:51:20.769Z,6.14
2022-12-23T08:53:53.552Z,6.18
2022-12-23T08:56:30.598Z,6.30
2022-12-23T08:58:57.893Z,6.33
2022-12-23T09:01:28.402Z,6.03
2022-12-23T09:03:55.195Z,5.94
2022-12-23T09:06:28.662Z,5.93
2022-12-23T09:08:56.204Z,6.03
2022-12-23T09:11:24.705Z,6.04
2022-12-23T09:13:51.442Z,5.97
2022-12-23T09:16:18.076Z,6.11
2022-12-23T09:18:44.650Z,5.93
2022-12-23T09:22:00.195Z,6.11
2022-12-23T09:24:26.655Z,6.10
2022-12-23T09:26:53.156Z,6.08
2022-12-23T09:29:19.658Z,6.20
2022-12-23T09:31:46.095Z,5.94
2022-12-23T09:34:12.601Z,5.91
2022-12-23T09:36:39.000Z,5.97
2022-12-23T09:39:05.380Z,5.99
2022-12-23T09:45:22.649Z,6.06
2022-12-23T09:51:20.852Z,6.17
2022-12-23T09:54:04.302Z,6.44
2022-12-23T09:57:06.521Z,6.28
2022-12-23T09:59:55.125Z,6.06
2022-12-23T10:08:40.425Z,6.29
2022-12-23T10:11:13.186Z,6.33
2022-12-23T10:13:45.137Z,6.26
2022-12-23T10:16:13.268Z,6.34
2022-12-23T10:18:48.319Z,6.58
2022-12-23T10:21:50.268Z,6.59
2022-12-23T10:24:38.572Z,6.43
2022-12-23T10:27:13.515Z,6.33
2022-12-23T10:34:11.411Z,6.47
2022-12-23T10:36:54.491Z,6.44
2022-12-23T10:46:10.022Z,6.72
2022-12-23T10:48:51.137Z,6.77
2022-12-23T10:51:30.807Z,6.90
2022-12-23T10:54:02.749Z,6.54
2022-12-23T10:56:39.015Z,6.64
2022-12-23T10:59:07.232Z,6.74
2022-12-23T11:01:57.700Z,6.77
2022-12-23T11:04:40.295Z,6.53
2022-12-23T11:07:44.485Z,6.65
2022-12-23T11:21:07.402Z,6.63
2022-12-23T11:23:33.180Z,6.43
2022-12-23T11:35:55.985Z,6.51
2022-12-23T11:42:19.105Z,6.66
2022-12-23T11:44:49.096Z,6.56
2022-12-23T11:47:35.875Z,6.51
2022-12-23T11:50:21.631Z,6.64
2022-12-23T11:52:52.161Z,6.68
2022-12-23T11:55:26.414Z,6.72
2022-12-23T11:57:53.103Z,6.74
2022-12-23T12:00:23.622Z,6.64
2022-12-23T12:03:03.339Z,6.60
2022-12-23T12:05:41.197Z,6.61
2022-12-23T12:08:14.314Z,6.61
2022-12-23T12:10:41.939Z,6.84
2022-12-23T12:13:20.089Z,6.56
2022-12-23T12:16:02.963Z,6.67
2022-12-23T12:18:29.470Z,6.52
2022-12-23T12:20:59.728Z,6.67
2022-12-23T12:23:46.720Z,6.89
2022-12-23T12:26:25.808Z,6.78
2022-12-23T12:28:56.601Z,6.85
2022-12-23T12:31:26.721Z,7.05
2022-12-23T12:33:58.292Z,6.99
2022-12-23T12:36:30.384Z,6.96
2022-12-23T12:38:57.875Z,6.84
2022-12-23T12:41:37.024Z,6.96
2022-12-23T12:44:06.408Z,6.96
2022-12-23T12:46:47.010Z,7.10
2022-12-23T12:49:24.336Z,6.92
2022-12-23T12:52:09.440Z,6.77
2022-12-23T12:54:40.024Z,7.03
2022-12-23T12:57:11.389Z,6.87
2022-12-23T12:59:39.062Z,6.67
2022-12-23T13:02:11.695Z,6.82
2022-12-23T13:04:58.081Z,6.82
2022-12-23T13:07:30.743Z,7.06
2022-12-23T13:10:15.389Z,7.14
2022-12-23T13:13:00.877Z,7.10
2022-12-23T13:15:47.498Z,6.92
2022-12-23T13:18:35.725Z,6.83
2022-12-23T13:22:10.935Z,6.95
2022-12-23T13:31:20.968Z,6.71
2022-12-23T13:37:20.934Z,6.84
2022-12-23T13:40:06.209Z,6.81
2022-12-23T13:42:35.884Z,6.69
2022-12-23T13:45:08.603Z,6.78
2022-12-23T13:47:41.469Z,6.89
2022-12-23T13:50:11.503Z,6.68
2022-12-23T13:52:55.634Z,6.80
2022-12-23T13:55:21.998Z,6.90
2022-12-23T14:01:10.677Z,6.89
2022-12-23T14:03:38.489Z,6.96
2022-12-23T14:06:20.213Z,6.95
2022-12-23T14:08:49.330Z,6.82
2022-12-23T14:11:21.865Z,6.88
2022-12-23T14:13:55.257Z,6.79
2022-12-23T14:16:46.940Z,6.82
2022-12-23T14:19:36.899Z,6.89
2022-12-23T14:22:13.203Z,6.82
2022-12-23T14:25:23.186Z,6.90
2022-12-23T14:31:29.600Z,6.72
2022-12-23T14:40:46.168Z,6.47
2022-12-23T14:43:32.000Z,6.49
2022-12-23T14:46:06.114Z,6.43
2022-12-23T14:48:32.779Z,6.42
2022-12-23T14:50:59.334Z,6.37
2022-12-23T14:53:29.972Z,6.30
2022-12-23T14:56:21.161Z,6.36
2022-12-23T14:58:52.366Z,6.34
2022-12-23T15:01:52.426Z,6.39
2022-12-23T15:07:47.681Z,6.32
2022-12-23T15:10:20.127Z,6.22
2022-12-23T15:12:56.188Z,6.27
2022-12-23T15:15:25.126Z,6.08
2022-12-23T15:18:01.367Z,6.16
2022-12-23T15:20:27.724Z,6.19
2022-12-23T15:22:59.354Z,6.23
2022-12-23T15:25:27.695Z,6.16
2022-12-23T15:28:01.463Z,6.01
2022-12-23T15:30:30.209Z,6.07
2022-12-23T15:33:01.904Z,6.09
2022-12-23T15:35:33.062Z,5.96
2022-12-23T15:38:00.659Z,5.75
2022-12-23T15:40:28.957Z,5.71
2022-12-23T15:42:55.412Z,5.95
2022-12-23T15:45:31.077Z,6.00
2022-12-23T15:47:57.481Z,5.94
2022-12-23T15:50:23.919Z,5.96
2022-12-23T15:52:50.641Z,5.90
2022-12-23T15:55:21.379Z,5.91
2022-12-23T15:57:50.554Z,5.91
2022-12-23T16:00:23.310Z,5.96
2022-12-23T16:03:10.450Z,6.00
2022-12-23T16:05:38.181Z,6.07
2022-12-23T16:08:13.843Z,5.94
2022-12-23T16:10:41.036Z,6.00
2022-12-23T16:13:16.955Z,6.05
2022-12-23T16:15:43.704Z,6.05
2022-12-23T16:18:14.465Z,6.05
2022-12-23T16:20:45.596Z,5.94
2022-12-23T16:23:12.716Z,5.98
2022-12-23T16:25:39.747Z,5.83
2022-12-23T16:28:12.919Z,5.97
2022-12-23T16:30:44.216Z,6.01
2022-12-23T16:33:25.638Z,5.82
2022-12-23T16:35:53.396Z,5.73
2022-12-23T16:38:21.568Z,5.75
2022-12-23T16:40:49.978Z,5.87
2022-12-23T16:43:16.883Z,5.96
2022-12-23T16:45:44.439Z,5.98
2022-12-23T16:48:17.037Z,6.02
2022-12-23T16:50:44.574Z,6.05
2022-12-23T16:53:12.489Z,5.86
2022-12-23T16:55:41.738Z,5.96
2022-12-23T16:58:12.653Z,6.00
2022-12-23T17:00:39.616Z,6.09
2022-12-23T17:03:06.596Z,6.08
2022-12-23T17:05:33.421Z,6.10
2022-12-23T17:07:59.985Z,6.10
2022-12-23T17:10:26.467Z,6.10
2022-12-23T17:12:52.988Z,5.91
2022-12-23T17:15:24.189Z,5.84
2022-12-23T17:17:51.960Z,5.93
2022-12-23T17:20:19.205Z,5.87
2022-12-23T17:22:46.706Z,5.86
2022-12-23T17:25:14.248Z,5.90
2022-12-23T17:27:40.897Z,5.96
2022-12-23T17:30:17.630Z,5.93
2022-12-23T17:32:50.027Z,6.02
2022-12-23T17:35:16.573Z,5.97
2022-12-23T17:37:43.603Z,5.87
2022-12-23T17:40:11.523Z,5.83
2022-12-23T17:42:37.958Z,5.92
2022-12-23T17:45:04.689Z,5.95
2022-12-23T17:47:31.111Z,5.77
2022-12-23T17:49:57.514Z,5.86
2022-12-23T17:52:24.347Z,5.85
2022-12-23T17:54:51.208Z,5.90
2022-12-23T17:57:18.113Z,5.74
2022-12-23T17:59:47.677Z,5.87
2022-12-23T18:02:20.868Z,5.84
2022-12-23T18:04:47.308Z,5.75
2022-12-23T18:07:13.737Z,5.88
2022-12-23T18:09:40.110Z,5.85
2022-12-23T18:12:06.761Z,5.83
2022-12-23T18:14:33.318Z,5.63
2022-12-23T18:16:59.828Z,5.83
2022-12-23T18:19:26.166Z,5.81
2022-12-23T18:21:52.807Z,5.73
2022-12-23T18:24:19.175Z,5.83
2022-12-23T18:26:46.076Z,5.80
2022-12-23T18:29:12.423Z,5.86
2022-12-23T18:31:48.523Z,5.91
2022-12-23T18:34:17.649Z,5.90
2022-12-23T18:36:44.217Z,5.91
2022-12-23T18:39:10.597Z,5.86
2022-12-23T18:41:36.984Z,5.88
2022-12-23T18:44:03.402Z,5.81
2022-12-23T18:46:29.781Z,5.89
2022-12-23T18:48:56.140Z,5.91
2022-12-23T18:51:22.677Z,5.93
2022-12-23T18:53:51.987Z,5.89
2022-12-23T18:56:21.165Z,5.84
2022-12-23T18:58:51.354Z,5.78
2022-12-23T19:01:18.707Z,5.81
2022-12-23T19:03:45.274Z,5.82
2022-12-23T19:06:15.556Z,5.75
2022-12-23T19:08:42.558Z,5.78
2022-12-23T19:11:13.819Z,5.84
2022-12-23T19:13:40.219Z,5.74
2022-12-23T19:16:06.706Z,5.72
2022-12-23T19:18:33.094Z,5.74
2022-12-23T19:21:02.964Z,5.80
2022-12-23T19:23:29.410Z,5.80
2022-12-23T19:25:55.825Z,5.76
2022-12-23T19:28:22.292Z,5.70
2022-12-23T19:30:49.330Z,5.68
2022-12-23T19:33:15.939Z,5.74
2022-12-23T19:35:42.798Z,5.72
2022-12-23T19:38:12.759Z,5.79
2022-12-23T19:40:39.771Z,5.74
2022-12-23T19:43:06.375Z,5.60
2022-12-23T19:45:32.999Z,5.40
2022-12-23T19:47:59.642Z,5.29
2022-12-23T19:50:27.291Z,5.48
2022-12-23T19:52:54.831Z,5.44
2022-12-23T19:55:21.236Z,5.48
2022-12-23T19:57:47.679Z,5.43
2022-12-23T20:00:17.906Z,5.42
2022-12-23T20:02:46.792Z,5.50
2022-12-23T20:05:13.416Z,5.44
2022-12-23T20:07:40.020Z,5.45
2022-12-23T20:10:07.092Z,5.38
2022-12-23T20:12:33.600Z,5.51
2022-12-23T20:15:00.226Z,5.56
2022-12-23T20:17:29.569Z,5.49
2022-12-23T20:20:09.256Z,5.47
2022-12-23T20:22:36.101Z,5.31
2022-12-23T20:25:05.357Z,5.26
2022-12-23T20:27:33.545Z,5.34
2022-12-23T20:30:01.268Z,5.28
2022-12-23T20:32:29.561Z,5.47
2022-12-23T20:34:56.145Z,5.39
2022-12-23T20:37:22.817Z,5.38
2022-12-23T20:39:57.591Z,5.39
2022-12-23T20:42:29.300Z,5.48
2022-12-23T20:44:55.740Z,5.46
2022-12-23T20:47:27.337Z,5.43
2022-12-23T20:50:00.310Z,5.44
2022-12-23T20:52:27.118Z,5.49
2022-12-23T20:54:56.351Z,5.46
2022-12-23T20:57:31.606Z,5.31
2022-12-23T21:00:12.408Z,5.30
2022-12-23T21:02:39.314Z,5.38
2022-12-23T21:05:11.960Z,5.49
2022-12-23T21:07:38.463Z,5.51
2022-12-23T21:10:07.255Z,5.28
2022-12-23T21:12:33.988Z,5.30
2022-12-23T21:15:03.038Z,5.43
2022-12-23T21:17:31.542Z,5.26
2022-12-23T21:19:59.373Z,5.48
2022-12-23T21:22:28.984Z,5.55
2022-12-23T21:24:55.622Z,5.45
2022-12-23T21:27:31.376Z,5.53
2022-12-23T21:30:01.205Z,5.31
2022-12-23T21:32:28.131Z,5.32
2022-12-23T21:34:57.157Z,5.45
2022-12-23T21:37:27.662Z,5.53
2022-12-23T21:40:00.648Z,5.54
2022-12-23T21:42:27.337Z,5.28
2022-12-23T21:44:55.459Z,5.36
2022-12-23T21:47:22.103Z,5.14
2022-12-23T21:49:48.558Z,5.41
2022-12-23T21:52:15.180Z,5.46
2022-12-23T21:54:41.643Z,5.42
2022-12-23T21:57:10.538Z,5.25
2022-12-23T21:59:37.148Z,5.24
2022-12-23T22:02:12.063Z,5.44
2022-12-23T22:04:38.907Z,5.45
2022-12-23T22:07:07.995Z,5.51
2022-12-23T22:09:34.481Z,5.42
2022-12-23T22:12:01.463Z,5.41
2022-12-23T22:14:31.618Z,5.42
2022-12-23T22:16:58.174Z,5.31
2022-12-23T22:19:24.663Z,5.37
2022-12-23T22:21:51.163Z,5.31
2022-12-23T22:24:17.902Z,5.30
2022-12-23T22:26:44.444Z,5.53
2022-12-23T22:32:07.348Z,5.16
2022-12-23T22:34:34.005Z,5.29
2022-12-23T22:37:00.631Z,5.11
2022-12-23T22:39:28.356Z,5.17
2022-12-23T22:41:57.806Z,5.17
2022-12-23T22:44:24.371Z,5.10
2022-12-23T22:46:53.250Z,5.11
2022-12-23T22:49:22.334Z,5.07
2022-12-23T22:51:48.831Z,5.07
2022-12-23T22:54:15.410Z,5.09
2022-12-23T22:56:42.071Z,5.11
2022-12-23T22:59:17.068Z,5.14
2022-12-23T23:01:43.490Z,5.13
2022-12-23T23:04:10.242Z,5.07
2022-12-23T23:06:38.255Z,5.03
2022-12-23T23:09:23.108Z,5.03
2022-12-23T23:11:49.744Z,5.06
2022-12-23T23:14:16.375Z,5.03
2022-12-23T23:16:42.734Z,4.99
2022-12-23T23:19:10.451Z,5.11
2022-12-23T23:21:37.734Z,4.99
2022-12-23T23:24:04.685Z,5.11
2022-12-23T23:26:31.036Z,5.20
2022-12-23T23:28:57.444Z,5.17
2022-12-23T23:34:10.764Z,5.03
2022-12-23T23:36:37.176Z,4.98
2022-12-23T23:39:03.669Z,4.81
2022-12-23T23:41:30.040Z,4.92
2022-12-23T23:43:56.371Z,5.17
2022-12-23T23:46:22.920Z,5.21
2022-12-23T23:48:52.297Z,5.30
2022-12-23T23:51:18.690Z,5.22
2022-12-23T23:53:45.013Z,5.22
2022-12-23T23:56:11.504Z,5.23
2022-12-23T23:58:38.057Z,5.31
